createdAt,value
2022-10-19T00:02:20.261Z,100.00
2022-10-19T00:04:48.285Z,100.00
2022-10-19T00:07:16.241Z,100.00
2022-10-19T00:09:44.693Z,100.00
2022-10-19T00:12:13.478Z,100.00
2022-10-19T00:14:42.828Z,100.00
2022-10-19T00:17:10.786Z,100.00
2022-10-19T00:19:38.754Z,100.00
2022-10-19T00:22:08.119Z,100.00
2022-10-19T00:24:38.470Z,100.00
2022-10-19T00:27:06.429Z,100.00
2022-10-19T00:29:34.396Z,100.00
2022-10-19T00:32:03.725Z,100.00
2022-10-19T00:34:31.701Z,100.00
2022-10-19T00:36:59.690Z,100.00
2022-10-19T00:39:27.636Z,100.00
2022-10-19T00:41:55.637Z,100.00
2022-10-19T00:44:58.665Z,100.00
2022-10-19T00:47:28.000Z,100.00
2022-10-19T00:49:55.968Z,100.00
2022-10-19T00:52:24.875Z,100.00
2022-10-19T00:54:53.133Z,100.00
2022-10-19T00:57:21.203Z,100.00
2022-10-19T00:59:49.179Z,100.00
2022-10-19T01:02:17.102Z,100.00
2022-10-19T01:04:48.874Z,100.00
2022-10-19T01:07:16.946Z,100.00
2022-10-19T01:09:44.895Z,100.00
2022-10-19T01:12:21.505Z,100.00
2022-10-19T01:14:55.924Z,100.00
2022-10-19T01:17:27.800Z,100.00
2022-10-19T01:20:17.076Z,100.00
2022-10-19T01:22:52.764Z,100.00
2022-10-19T01:25:23.093Z,100.00
2022-10-19T01:28:08.574Z,100.00
2022-10-19T01:30:43.556Z,100.00
2022-10-19T01:33:17.962Z,100.00
2022-10-19T01:35:48.002Z,100.00
2022-10-19T01:38:21.982Z,100.00
2022-10-19T01:40:55.023Z,100.00
2022-10-19T01:43:28.916Z,100.00
2022-10-19T01:45:59.946Z,100.00
2022-10-19T01:48:29.818Z,100.00
2022-10-19T01:51:00.208Z,100.00
2022-10-19T01:53:29.397Z,100.00
2022-10-19T01:55:57.324Z,100.00
2022-10-19T01:58:27.725Z,100.00
2022-10-19T02:00:56.067Z,100.00
2022-10-19T02:03:25.462Z,100.00
2022-10-19T02:05:53.499Z,100.00
2022-10-19T02:08:23.801Z,100.00
2022-10-19T02:10:51.755Z,100.00
2022-10-19T02:13:19.972Z,100.00
2022-10-19T02:15:48.898Z,100.00
2022-10-19T02:18:18.731Z,100.00
2022-10-19T02:20:48.115Z,100.00
2022-10-19T02:23:16.273Z,100.00
2022-10-19T02:25:44.335Z,100.00
2022-10-19T02:28:12.387Z,100.00
2022-10-19T02:30:40.466Z,100.00
2022-10-19T02:33:08.427Z,100.00
2022-10-19T02:35:36.394Z,100.00
2022-10-19T02:38:05.696Z,100.00
2022-10-19T02:40:34.936Z,100.00
2022-10-19T02:43:04.907Z,100.00
2022-10-19T02:45:33.803Z,100.00
2022-10-19T02:48:03.627Z,100.00
2022-10-19T02:50:31.636Z,100.00
2022-10-19T02:52:59.807Z,100.00
2022-10-19T02:55:29.285Z,100.00
2022-10-19T02:57:57.480Z,100.00
2022-10-19T03:00:25.438Z,100.00
2022-10-19T03:02:53.439Z,100.00
2022-10-19T03:05:21.402Z,100.00
2022-10-19T03:07:49.375Z,100.00
2022-10-19T03:10:17.490Z,100.00
2022-10-19T03:12:46.847Z,100.00
2022-10-19T03:15:16.299Z,100.00
2022-10-19T03:17:44.322Z,100.00
2022-10-19T03:20:12.472Z,100.00
2022-10-19T03:22:40.458Z,100.00
2022-10-19T03:25:09.203Z,100.00
2022-10-19T03:27:37.272Z,100.00
2022-10-19T03:30:07.657Z,100.00
2022-10-19T03:32:35.660Z,100.00
2022-10-19T03:35:03.586Z,100.00
2022-10-19T03:37:31.750Z,100.00
2022-10-19T03:40:00.186Z,100.00
2022-10-19T03:42:28.162Z,100.00
2022-10-19T03:44:56.159Z,100.00
2022-10-19T03:47:25.597Z,100.00
2022-10-19T03:49:53.559Z,100.00
2022-10-19T03:52:21.586Z,100.00
2022-10-19T03:54:51.140Z,100.00
2022-10-19T03:57:19.177Z,100.00
2022-10-19T03:59:47.216Z,100.00
2022-10-19T04:02:15.174Z,100.00
2022-10-19T04:04:44.529Z,100.00
2022-10-19T04:07:12.631Z,100.00
2022-10-19T04:09:40.655Z,100.00
2022-10-19T04:12:08.765Z,100.00
2022-10-19T04:14:52.487Z,100.00
2022-10-19T04:17:24.741Z,100.00
2022-10-19T04:19:54.053Z,100.00
2022-10-19T04:22:22.022Z,100.00
2022-10-19T04:24:49.973Z,100.00
2022-10-19T04:27:18.040Z,100.00
2022-10-19T04:29:46.171Z,100.00
2022-10-19T04:32:14.140Z,100.00
2022-10-19T04:34:42.093Z,100.00
2022-10-19T04:37:11.388Z,100.00
2022-10-19T04:39:41.200Z,100.00
2022-10-19T04:42:09.179Z,100.00
2022-10-19T04:44:37.111Z,100.00
2022-10-19T04:47:05.119Z,100.00
2022-10-19T04:49:33.094Z,100.00
2022-10-19T04:52:01.042Z,100.00
2022-10-19T04:54:30.437Z,100.00
2022-10-19T04:56:58.361Z,100.00
2022-10-19T04:59:26.438Z,100.00
2022-10-19T05:01:54.393Z,100.00
2022-10-19T05:04:22.389Z,100.00
2022-10-19T05:06:50.342Z,100.00
2022-10-19T05:09:18.392Z,100.00
2022-10-19T05:11:49.440Z,100.00
2022-10-19T05:14:17.448Z,100.00
2022-10-19T05:16:45.482Z,100.00
2022-10-19T05:19:14.159Z,100.00
2022-10-19T05:21:42.238Z,100.00
2022-10-19T05:24:12.918Z,100.00
2022-10-19T05:26:40.888Z,100.00
2022-10-19T05:29:13.342Z,100.00
2022-10-19T05:31:41.472Z,100.00
2022-10-19T05:34:09.454Z,100.00
2022-10-19T05:36:37.931Z,100.00
2022-10-19T05:39:07.435Z,100.00
2022-10-19T05:41:35.677Z,100.00
2022-10-19T05:44:03.710Z,100.00
2022-10-19T05:46:33.505Z,100.00
2022-10-19T05:49:01.439Z,100.00
2022-10-19T05:51:29.571Z,100.00
2022-10-19T05:53:57.693Z,100.00
2022-10-19T05:56:27.030Z,100.00
2022-10-19T05:58:55.975Z,100.00
2022-10-19T06:01:23.977Z,100.00
2022-10-19T06:03:54.279Z,100.00
2022-10-19T06:06:22.368Z,100.00
2022-10-19T06:08:50.359Z,100.00
2022-10-19T06:11:19.240Z,100.00
2022-10-19T06:13:48.341Z,100.00
2022-10-19T06:16:16.965Z,100.00
2022-10-19T06:18:45.104Z,100.00
2022-10-19T06:21:16.585Z,100.00
2022-10-19T06:23:44.599Z,100.00
2022-10-19T06:26:13.792Z,100.00
2022-10-19T06:28:42.492Z,100.00
2022-10-19T06:31:10.691Z,100.00
2022-10-19T06:33:40.107Z,100.00
2022-10-19T06:36:08.557Z,100.00
2022-10-19T06:38:37.928Z,100.00
2022-10-19T06:41:06.035Z,100.00
2022-10-19T06:43:34.003Z,100.00
2022-10-19T06:46:05.488Z,100.00
2022-10-19T06:48:33.422Z,100.00
2022-10-19T06:51:02.108Z,100.00
2022-10-19T06:53:30.172Z,100.00
2022-10-19T06:56:00.195Z,100.00
2022-10-19T06:58:28.364Z,100.00
2022-10-19T07:00:57.703Z,100.00
2022-10-19T07:03:25.852Z,100.00
2022-10-19T07:05:55.048Z,100.00
2022-10-19T07:08:23.133Z,100.00
2022-10-19T07:10:52.110Z,100.00
2022-10-19T07:13:21.722Z,100.00
2022-10-19T07:15:49.884Z,100.00
2022-10-19T07:18:18.201Z,100.00
2022-10-19T07:20:55.519Z,100.00
2022-10-19T07:23:23.616Z,100.00
2022-10-19T07:25:53.072Z,100.00
2022-10-19T07:28:22.639Z,100.00
2022-10-19T07:30:50.621Z,100.00
2022-10-19T07:33:18.539Z,100.00
2022-10-19T07:35:46.514Z,100.00
2022-10-19T07:38:14.630Z,100.00
2022-10-19T07:40:46.347Z,100.00
2022-10-19T07:43:15.484Z,100.00
2022-10-19T07:45:44.884Z,100.00
2022-10-19T07:48:12.970Z,100.00
2022-10-19T07:50:41.004Z,100.00
2022-10-19T07:53:09.001Z,100.00
2022-10-19T07:55:36.995Z,100.00
2022-10-19T07:58:05.146Z,100.00
2022-10-19T08:00:33.192Z,100.00
2022-10-19T08:03:31.578Z,100.00
2022-10-19T08:05:50.556Z,100.00
2022-10-19T08:08:18.527Z,100.00
2022-10-19T08:10:46.602Z,100.00
2022-10-19T08:13:14.576Z,100.00
2022-10-19T08:15:42.642Z,99.49
2022-10-19T08:18:12.555Z,97.02
2022-10-19T08:20:42.059Z,99.78
2022-10-19T08:23:10.113Z,98.97
2022-10-19T08:25:38.397Z,97.13
2022-10-19T08:28:06.341Z,93.93
2022-10-19T08:30:35.680Z,94.43
2022-10-19T08:33:04.538Z,93.77
2022-10-19T08:35:33.927Z,91.35
2022-10-19T08:38:02.891Z,88.80
2022-10-19T08:40:31.438Z,86.85
2022-10-19T08:43:01.467Z,86.31
2022-10-19T08:45:42.776Z,85.99
2022-10-19T08:48:24.341Z,83.02
2022-10-19T08:50:53.741Z,82.97
2022-10-19T08:53:25.670Z,81.02
2022-10-19T08:56:03.680Z,77.85
2022-10-19T08:58:42.026Z,75.12
2022-10-19T09:01:12.352Z,72.59
2022-10-19T09:03:54.943Z,70.28
2022-10-19T09:06:26.100Z,65.16
2022-10-19T09:08:54.840Z,67.10
2022-10-19T09:11:26.076Z,65.39
2022-10-19T09:14:06.548Z,63.91
2022-10-19T09:16:35.238Z,64.48
2022-10-19T09:19:03.575Z,61.00
2022-10-19T09:21:45.957Z,59.44
2022-10-19T09:24:22.140Z,60.26
2022-10-19T09:26:52.669Z,58.26
2022-10-19T09:29:23.026Z,54.98
2022-10-19T09:31:51.036Z,53.58
2022-10-19T09:34:22.109Z,54.16
2022-10-19T09:36:53.683Z,54.73
2022-10-19T09:39:23.461Z,53.48
2022-10-19T09:41:55.177Z,49.95
2022-10-19T09:44:23.302Z,51.04
2022-10-19T09:46:53.132Z,48.45
2022-10-19T09:49:21.285Z,48.53
2022-10-19T09:51:51.922Z,46.77
2022-10-19T09:54:32.488Z,45.63
2022-10-19T09:57:00.486Z,45.62
2022-10-19T09:59:31.081Z,43.83
2022-10-19T10:02:17.648Z,41.83
2022-10-19T10:04:48.827Z,40.59
2022-10-19T10:07:17.790Z,38.38
2022-10-19T10:09:47.140Z,37.00
2022-10-19T10:12:16.026Z,37.31
2022-10-19T10:14:44.383Z,37.31
2022-10-19T10:17:16.222Z,38.09
2022-10-19T10:19:51.624Z,37.73
2022-10-19T10:22:26.033Z,36.80
2022-10-19T10:24:55.949Z,36.37
2022-10-19T10:27:31.950Z,36.40
2022-10-19T10:30:00.432Z,35.47
2022-10-19T10:32:28.763Z,36.22
2022-10-19T10:35:01.297Z,36.88
2022-10-19T10:37:31.441Z,36.69
2022-10-19T10:40:04.622Z,36.60
2022-10-19T10:42:35.985Z,36.52
2022-10-19T10:45:04.693Z,37.07
2022-10-19T10:47:33.044Z,36.65
2022-10-19T10:50:02.888Z,35.92
2022-10-19T10:52:32.073Z,35.94
2022-10-19T10:55:03.327Z,33.87
2022-10-19T10:57:33.554Z,32.89
2022-10-19T11:00:03.750Z,32.54
2022-10-19T11:02:36.867Z,32.89
2022-10-19T11:05:08.069Z,33.53
2022-10-19T11:07:36.397Z,34.15
2022-10-19T11:10:10.196Z,33.04
2022-10-19T11:12:40.009Z,31.73
2022-10-19T11:15:14.327Z,32.54
2022-10-19T11:17:46.379Z,32.97
2022-10-19T11:20:16.296Z,31.83
2022-10-19T11:22:46.286Z,30.09
2022-10-19T11:25:25.067Z,28.40
2022-10-19T11:27:57.897Z,28.09
2022-10-19T11:30:26.288Z,26.02
2022-10-19T11:32:59.820Z,25.28
2022-10-19T11:35:40.068Z,22.69
2022-10-19T11:38:27.415Z,21.56
2022-10-19T11:41:17.502Z,20.73
2022-10-19T11:43:52.381Z,20.27
2022-10-19T11:46:22.594Z,20.10
2022-10-19T11:49:09.610Z,19.50
2022-10-19T11:51:40.549Z,19.59
2022-10-19T11:54:17.571Z,21.94
2022-10-19T11:57:08.315Z,23.31
2022-10-19T11:59:44.259Z,25.05
2022-10-19T12:02:23.941Z,26.25
2022-10-19T12:04:53.903Z,27.73
2022-10-19T12:07:33.638Z,28.02
2022-10-19T12:10:04.830Z,28.32
2022-10-19T12:12:35.163Z,29.40
2022-10-19T12:15:23.695Z,30.49
2022-10-19T12:17:52.862Z,29.93
2022-10-19T12:20:24.719Z,30.29
2022-10-19T12:22:52.723Z,31.00
2022-10-19T12:25:20.704Z,31.57
2022-10-19T12:27:50.759Z,31.31
2022-10-19T12:30:20.081Z,31.43
2022-10-19T12:33:04.876Z,32.05
2022-10-19T12:35:40.926Z,32.82
2022-10-19T12:38:11.859Z,32.71
2022-10-19T12:40:41.178Z,33.15
2022-10-19T12:43:12.394Z,32.79
2022-10-19T12:45:41.549Z,33.26
2022-10-19T12:48:20.208Z,33.34
2022-10-19T12:51:02.138Z,32.66
2022-10-19T12:53:31.507Z,33.07
2022-10-19T12:56:01.530Z,34.13
2022-10-19T12:58:31.803Z,33.03
2022-10-19T13:01:00.089Z,33.85
2022-10-19T13:03:30.434Z,34.48
2022-10-19T13:05:58.574Z,34.00
2022-10-19T13:08:28.779Z,34.40
2022-10-19T13:11:05.273Z,34.88
2022-10-19T13:13:54.683Z,34.33
2022-10-19T13:16:56.252Z,34.41
2022-10-19T13:19:24.211Z,35.29
2022-10-19T13:22:19.738Z,35.20
2022-10-19T13:25:14.221Z,36.09
2022-10-19T13:27:42.404Z,37.13
2022-10-19T13:31:00.513Z,36.14
2022-10-19T13:33:48.754Z,36.91
2022-10-19T13:36:17.520Z,36.74
2022-10-19T13:38:46.377Z,36.59
2022-10-19T13:41:22.161Z,36.81
2022-10-19T13:44:17.030Z,36.32
2022-10-19T13:47:16.750Z,36.87
2022-10-19T13:49:57.815Z,36.76
2022-10-19T13:52:45.587Z,36.46
2022-10-19T13:55:28.681Z,36.81
2022-10-19T13:58:14.248Z,36.27
2022-10-19T14:00:53.789Z,36.91
2022-10-19T14:03:27.446Z,36.34
2022-10-19T14:06:17.795Z,37.13
2022-10-19T14:09:25.136Z,37.39
2022-10-19T14:11:53.428Z,37.23
2022-10-19T14:14:22.330Z,36.36
2022-10-19T14:16:52.785Z,36.80
2022-10-19T14:19:28.742Z,37.32
2022-10-19T14:21:59.851Z,37.49
2022-10-19T14:24:32.819Z,37.50
2022-10-19T14:27:02.156Z,38.06
2022-10-19T14:29:30.194Z,37.86
2022-10-19T14:31:59.843Z,38.04
2022-10-19T14:34:27.766Z,38.21
2022-10-19T14:36:56.184Z,38.59
2022-10-19T14:39:30.011Z,38.63
2022-10-19T14:42:00.446Z,38.87
2022-10-19T14:44:41.716Z,39.40
2022-10-19T14:47:21.216Z,39.98
2022-10-19T14:49:49.256Z,41.28
2022-10-19T14:52:20.169Z,42.20
2022-10-19T14:54:49.943Z,43.41
2022-10-19T14:57:19.283Z,44.40
2022-10-19T14:59:48.813Z,46.10
2022-10-19T15:02:19.002Z,46.58
2022-10-19T15:04:47.076Z,46.73
2022-10-19T15:07:17.825Z,47.66
2022-10-19T15:09:52.381Z,48.67
2022-10-19T15:12:22.395Z,50.45
2022-10-19T15:14:50.393Z,51.58
2022-10-19T15:17:23.858Z,53.16
2022-10-19T15:19:51.833Z,56.03
2022-10-19T15:22:20.900Z,58.25
2022-10-19T15:25:03.567Z,61.23
2022-10-19T15:27:33.419Z,63.89
2022-10-19T15:30:02.178Z,65.85
2022-10-19T15:32:33.265Z,67.30
2022-10-19T15:35:01.508Z,67.45
2022-10-19T15:37:29.480Z,69.22
2022-10-19T15:39:57.442Z,70.33
2022-10-19T15:42:38.228Z,71.64
2022-10-19T15:45:07.329Z,73.08
2022-10-19T15:47:35.459Z,73.54
2022-10-19T15:50:03.667Z,75.66
2022-10-19T15:52:33.079Z,76.44
2022-10-19T15:55:01.251Z,77.71
2022-10-19T15:57:32.505Z,77.42
2022-10-19T16:00:03.701Z,78.34
2022-10-19T16:02:31.705Z,79.12
2022-10-19T16:04:59.680Z,79.34
2022-10-19T16:07:28.827Z,79.60
2022-10-19T16:09:57.279Z,78.74
2022-10-19T16:12:26.389Z,79.99
2022-10-19T16:14:54.379Z,80.77
2022-10-19T16:17:23.749Z,79.67
2022-10-19T16:19:51.738Z,79.85
2022-10-19T16:22:19.681Z,79.79
2022-10-19T16:24:47.615Z,79.96
2022-10-19T16:27:16.448Z,81.39
2022-10-19T16:29:44.636Z,80.94
2022-10-19T16:32:12.649Z,82.35
2022-10-19T16:34:42.299Z,82.47
2022-10-19T16:37:10.311Z,83.49
2022-10-19T16:39:38.277Z,84.14
2022-10-19T16:42:06.264Z,84.19
2022-10-19T16:44:34.315Z,85.22
2022-10-19T16:47:02.328Z,84.74
2022-10-19T16:49:30.431Z,85.70
2022-10-19T16:52:00.771Z,86.22
2022-10-19T16:54:29.821Z,86.32
2022-10-19T16:56:57.807Z,86.60
2022-10-19T16:59:25.788Z,87.65
2022-10-19T17:01:53.934Z,88.90
2022-10-19T17:04:22.134Z,90.22
2022-10-19T17:06:50.146Z,89.39
2022-10-19T17:12:07.823Z,90.72
2022-10-19T17:14:35.948Z,91.46
2022-10-19T17:17:03.883Z,92.00
2022-10-19T17:19:31.911Z,93.10
2022-10-19T17:22:01.960Z,93.45
2022-10-19T17:24:31.730Z,93.72
2022-10-19T17:27:01.408Z,94.32
2022-10-19T17:29:29.378Z,94.40
2022-10-19T17:31:57.350Z,93.75
2022-10-19T17:34:25.359Z,92.40
2022-10-19T17:36:53.380Z,92.80
2022-10-19T17:39:25.697Z,93.63
2022-10-19T17:42:01.886Z,94.69
2022-10-19T17:44:31.293Z,94.76
2022-10-19T17:46:59.505Z,95.34
2022-10-19T17:49:27.472Z,95.82
2022-10-19T17:51:55.399Z,96.56
2022-10-19T17:54:23.411Z,97.98
2022-10-19T17:56:51.569Z,98.67
2022-10-19T17:59:30.295Z,99.75
2022-10-19T18:02:03.600Z,99.73
2022-10-19T18:04:31.945Z,99.54
2022-10-19T18:06:59.916Z,99.38
2022-10-19T18:09:27.906Z,98.59
2022-10-19T18:11:55.864Z,97.90
2022-10-19T18:14:25.151Z,96.76
2022-10-19T18:16:53.158Z,97.26
2022-10-19T18:19:21.103Z,97.82
2022-10-19T18:21:49.272Z,98.23
2022-10-19T18:24:19.579Z,99.04
2022-10-19T18:26:47.876Z,99.81
2022-10-19T18:29:17.341Z,99.33
2022-10-19T18:31:51.477Z,99.60
2022-10-19T18:34:20.560Z,99.39
2022-10-19T18:36:49.082Z,99.09
2022-10-19T18:39:17.039Z,99.73
2022-10-19T18:41:45.014Z,100.00
2022-10-19T18:44:13.882Z,98.69
2022-10-19T18:46:41.862Z,99.40
2022-10-19T18:49:12.922Z,99.73
2022-10-19T18:51:40.866Z,99.87
2022-10-19T18:54:08.834Z,100.00
2022-10-19T18:56:37.367Z,99.74
2022-10-19T18:59:05.444Z,99.06
2022-10-19T19:01:33.491Z,99.58
2022-10-19T19:04:06.913Z,100.00
2022-10-19T19:06:36.425Z,100.00
2022-10-19T19:09:05.979Z,100.00
2022-10-19T19:11:36.914Z,100.00
2022-10-19T19:14:06.221Z,99.93
2022-10-19T19:16:35.369Z,100.00
2022-10-19T19:19:03.432Z,100.00
2022-10-19T19:21:31.884Z,100.00
2022-10-19T19:24:02.137Z,100.00
2022-10-19T19:26:30.957Z,100.00
2022-10-19T19:28:58.891Z,99.13
2022-10-19T19:31:26.874Z,99.47
2022-10-19T19:33:54.794Z,98.68
2022-10-19T19:36:22.826Z,99.49
2022-10-19T19:38:51.953Z,99.10
2022-10-19T19:41:21.374Z,100.00
2022-10-19T19:43:49.346Z,100.00
2022-10-19T19:46:18.249Z,100.00
2022-10-19T19:48:46.837Z,100.00
2022-10-19T19:51:15.727Z,100.00
2022-10-19T19:53:43.690Z,100.00
2022-10-19T19:56:12.559Z,100.00
2022-10-19T19:58:41.864Z,100.00
2022-10-19T20:01:12.462Z,100.00
2022-10-19T20:03:41.655Z,100.00
2022-10-19T20:06:09.606Z,100.00
2022-10-19T20:08:37.765Z,100.00
2022-10-19T20:11:06.869Z,100.00
2022-10-19T20:13:34.885Z,100.00
2022-10-19T20:16:09.348Z,100.00
2022-10-19T20:18:37.338Z,100.00
2022-10-19T20:21:05.507Z,100.00
2022-10-19T20:23:33.479Z,100.00
2022-10-19T20:26:01.402Z,100.00
2022-10-19T20:28:29.407Z,100.00
2022-10-19T20:31:01.769Z,100.00
2022-10-19T20:33:32.012Z,100.00
2022-10-19T20:36:03.961Z,100.00
2022-10-19T20:38:31.952Z,100.00
2022-10-19T20:41:01.910Z,100.00
2022-10-19T20:43:32.145Z,100.00
2022-10-19T20:46:04.159Z,100.00
2022-10-19T20:48:33.507Z,100.00
2022-10-19T20:51:11.860Z,100.00
2022-10-19T20:53:39.831Z,100.00
2022-10-19T20:56:08.862Z,100.00
2022-10-19T20:58:38.646Z,100.00
2022-10-19T21:01:10.619Z,100.00
2022-10-19T21:03:39.963Z,100.00
2022-10-19T21:06:08.887Z,100.00
2022-10-19T21:08:37.284Z,100.00
2022-10-19T21:11:12.714Z,100.00
2022-10-19T21:13:40.650Z,100.00
2022-10-19T21:16:12.242Z,100.00
2022-10-19T21:18:41.757Z,100.00
2022-10-19T21:21:14.487Z,100.00
2022-10-19T21:23:42.471Z,100.00
2022-10-19T21:26:10.479Z,100.00
2022-10-19T21:28:38.545Z,100.00
2022-10-19T21:31:06.896Z,100.00
2022-10-19T21:33:34.855Z,100.00
2022-10-19T21:36:04.512Z,100.00
2022-10-19T21:38:32.558Z,100.00
2022-10-19T21:41:01.026Z,100.00
2022-10-19T21:43:29.183Z,100.00
2022-10-19T21:45:57.128Z,100.00
2022-10-19T21:48:25.098Z,100.00
2022-10-19T21:50:53.067Z,100.00
2022-10-19T21:53:23.619Z,100.00
2022-10-19T21:55:51.734Z,100.00
2022-10-19T21:58:21.650Z,100.00
2022-10-19T22:00:49.670Z,100.00
2022-10-19T22:03:19.241Z,100.00
2022-10-19T22:05:53.434Z,100.00
2022-10-19T22:08:22.761Z,100.00
2022-10-19T22:10:50.727Z,100.00
2022-10-19T22:13:18.701Z,100.00
2022-10-19T22:15:46.640Z,100.00
2022-10-19T22:18:14.590Z,100.00
2022-10-19T22:20:42.501Z,100.00
2022-10-19T22:23:10.459Z,100.00
2022-10-19T22:25:39.791Z,100.00
2022-10-19T22:28:07.745Z,100.00
2022-10-19T22:30:35.689Z,100.00
2022-10-19T22:33:03.615Z,100.00
2022-10-19T22:35:31.606Z,100.00
2022-10-19T22:37:59.624Z,100.00
2022-10-19T22:40:27.608Z,100.00
2022-10-19T22:42:56.925Z,100.00
2022-10-19T22:45:24.863Z,100.00
2022-10-19T22:47:52.808Z,100.00
2022-10-19T22:50:20.763Z,100.00
2022-10-19T22:52:48.699Z,100.00
2022-10-19T22:55:16.772Z,100.00
2022-10-19T22:57:44.712Z,100.00
2022-10-19T23:00:14.963Z,100.00
2022-10-19T23:02:42.935Z,100.00
2022-10-19T23:05:11.022Z,100.00
2022-10-19T23:07:39.105Z,100.00
2022-10-19T23:10:07.964Z,100.00
2022-10-19T23:12:35.920Z,100.00
2022-10-19T23:15:03.920Z,100.00
2022-10-19T23:17:33.533Z,100.00
2022-10-19T23:20:01.688Z,100.00
2022-10-19T23:22:29.672Z,100.00
2022-10-19T23:24:57.605Z,100.00
2022-10-19T23:27:25.578Z,100.00
2022-10-19T23:29:53.550Z,100.00
2022-10-19T23:32:21.512Z,100.00
2022-10-19T23:34:50.838Z,100.00
2022-10-19T23:37:18.784Z,100.00
2022-10-19T23:39:46.750Z,100.00
2022-10-19T23:42:14.712Z,100.00
2022-10-19T23:44:42.660Z,100.00
2022-10-19T23:47:10.601Z,100.00
2022-10-19T23:49:38.551Z,100.00
2022-10-19T23:52:08.036Z,100.00
2022-10-19T23:54:36.005Z,100.00
2022-10-19T23:57:03.940Z,100.00
2022-10-19T23:59:31.860Z,100.00
